Check out our new BloomSky Weather System.

Active alerts


No alerts


Thunder radar  blitzortung!


Rain radar more information rain snow radar


Visit our other weather sites:

Template documentation
and downloads

And another site



Weather Underground History page Text

Daily Summary for November 23, 2017 Units:  English    Metric   Both
« Previous Day
Next Day »
Daily Weekly Monthly Yearly Custom
  High: Low: Average:
Temperature: 65.5 °F 36.5 °F 50.5 °F
Dew Point: 43.9 °F 33.8 °F 38.9 °F
Humidity: 94 % 31 % 68 %
Wind Speed: 5.0 mph 0.0 mph 0.6 mph
Wind Gust: 8.0 mph - -
Wind:- - SW
Pressure: 30.22 in 30.07 in -
Precipitation: 0.00 in    
Historical Graphs
 
 
Tabular Data for November 23, 2017
Time Temperature Dew Point Pressure Wind Wind Speed Wind Gust Humidity Rainfall Rate (Hourly)
00:02 47.7 °F 40.1 °F 30.22 in NW 1.0 mph 1.0 mph 75 % 0.00 in
00:12 47.3 °F 40.1 °F 30.22 in Calm   2.0 mph 76 % 0.00 in
00:17 47.1 °F 39.9 °F 30.22 in Calm   2.0 mph 76 % 0.00 in
00:22 46.9 °F 40.1 °F 30.22 in Calm   1.0 mph 77 % 0.00 in
00:27 46.9 °F 39.7 °F 30.22 in Calm   2.0 mph 76 % 0.00 in
00:32 46.8 °F 39.9 °F 30.22 in Calm   2.0 mph 77 % 0.00 in
00:37 46.6 °F 39.7 °F 30.22 in NNW 1.0 mph 2.0 mph 77 % 0.00 in
00:42 46.6 °F 39.7 °F 30.22 in NNW 1.0 mph 2.0 mph 77 % 0.00 in
00:47 46.6 °F 39.7 °F 30.21 in NW 1.0 mph 2.0 mph 77 % 0.00 in
00:52 46.4 °F 39.6 °F 30.21 in NNW 1.0 mph 2.0 mph 77 % 0.00 in
00:57 46.2 °F 39.4 °F 30.21 in Calm   3.0 mph 77 % 0.00 in
01:02 46.2 °F 39.7 °F 30.21 in Calm   3.0 mph 78 % 0.00 in
01:07 46.0 °F 39.2 °F 30.21 in North 1.0 mph 3.0 mph 77 % 0.00 in
01:17 46.0 °F 39.2 °F 30.21 in NNW 1.0 mph 3.0 mph 77 % 0.00 in
01:18 46.0 °F 38.8 °F 30.21 in Calm   3.0 mph 76 % 0.00 in
01:28 46.0 °F 38.5 °F 30.20 in Calm   4.0 mph 75 % 0.00 in
01:32 46.0 °F 38.8 °F 30.20 in NW 1.0 mph 4.0 mph 76 % 0.00 in
01:42 45.7 °F 38.5 °F 30.21 in Calm   3.0 mph 76 % 0.00 in
01:52 45.5 °F 38.3 °F 30.20 in NW 1.0 mph 3.0 mph 76 % 0.00 in
01:57 45.3 °F 38.1 °F 30.20 in NNW 1.0 mph 4.0 mph 76 % 0.00 in
02:07 45.1 °F 37.9 °F 30.19 in Calm   4.0 mph 76 % 0.00 in
02:12 45.0 °F 37.9 °F 30.20 in Calm   4.0 mph 76 % 0.00 in
02:22 44.8 °F 37.8 °F 30.19 in Calm   2.0 mph 76 % 0.00 in
02:27 44.4 °F 37.6 °F 30.19 in NW 1.0 mph 2.0 mph 77 % 0.00 in
02:33 44.4 °F 37.6 °F 30.19 in Calm   2.0 mph 77 % 0.00 in
02:38 44.2 °F 37.6 °F 30.19 in Calm   2.0 mph 77 % 0.00 in
02:43 44.2 °F 37.6 °F 30.19 in Calm   2.0 mph 77 % 0.00 in
02:48 44.1 °F 37.6 °F 30.18 in Calm   2.0 mph 78 % 0.00 in
02:58 43.9 °F 37.4 °F 30.18 in Calm   2.0 mph 78 % 0.00 in
03:03 43.7 °F 37.2 °F 30.18 in Calm   1.0 mph 78 % 0.00 in
03:13 43.3 °F 37.2 °F 30.18 in Calm     79 % 0.00 in
03:18 43.2 °F 37.0 °F 30.18 in Calm     79 % 0.00 in
03:28 43.0 °F 36.9 °F 30.18 in Calm   1.0 mph 79 % 0.00 in
03:43 42.6 °F 36.9 °F 30.19 in Calm   1.0 mph 80 % 0.00 in
03:53 42.6 °F 36.9 °F 30.19 in Calm   1.0 mph 80 % 0.00 in
03:58 42.6 °F 36.9 °F 30.19 in Calm   1.0 mph 80 % 0.00 in
04:03 42.4 °F 36.7 °F 30.18 in Calm   1.0 mph 80 % 0.00 in
04:08 42.3 °F 36.5 °F 30.18 in Calm   1.0 mph 80 % 0.00 in
04:14 42.1 °F 36.7 °F 30.18 in Calm   1.0 mph 81 % 0.00 in
04:15 42.1 °F 36.7 °F 30.18 in Calm   1.0 mph 81 % 0.00 in
04:20 41.9 °F 36.5 °F 30.18 in Calm   1.0 mph 81 % 0.00 in
04:25 41.7 °F 36.7 °F 30.18 in Calm   1.0 mph 82 % 0.00 in
04:30 41.7 °F 36.7 °F 30.18 in Calm   1.0 mph 82 % 0.00 in
04:35 41.5 °F 36.5 °F 30.18 in NNW 1.0 mph 1.0 mph 82 % 0.00 in
04:40 41.7 °F 36.7 °F 30.18 in Calm   2.0 mph 82 % 0.00 in
04:45 41.7 °F 36.7 °F 30.18 in Calm   2.0 mph 82 % 0.00 in
04:55 41.4 °F 36.3 °F 30.18 in Calm   1.0 mph 82 % 0.00 in
05:00 41.0 °F 36.0 °F 30.18 in Calm   1.0 mph 82 % 0.00 in
05:05 40.6 °F 35.6 °F 30.18 in Calm     82 % 0.00 in
05:10 40.1 °F 35.4 °F 30.18 in Calm     83 % 0.00 in
05:15 39.9 °F 35.4 °F 30.18 in Calm     84 % 0.00 in
05:20 39.7 °F 35.6 °F 30.18 in Calm     85 % 0.00 in
05:25 39.7 °F 36.0 °F 30.18 in Calm     86 % 0.00 in
05:30 39.6 °F 35.4 °F 30.18 in Calm     85 % 0.00 in
05:35 39.2 °F 35.1 °F 30.18 in Calm     85 % 0.00 in
05:40 38.7 °F 34.5 °F 30.18 in Calm     85 % 0.00 in
05:46 38.1 °F 34.0 °F 30.18 in Calm     85 % 0.00 in
05:51 37.8 °F 34.2 °F 30.18 in Calm     87 % 0.00 in
05:56 37.8 °F 34.5 °F 30.18 in Calm     88 % 0.00 in
06:01 37.8 °F 34.5 °F 30.19 in Calm     88 % 0.00 in
06:06 37.8 °F 34.9 °F 30.19 in Calm     89 % 0.00 in
06:11 37.8 °F 34.9 °F 30.19 in Calm     89 % 0.00 in
06:16 37.6 °F 34.9 °F 30.19 in Calm     90 % 0.00 in
06:26 37.8 °F 35.4 °F 30.19 in Calm     91 % 0.00 in
06:31 37.6 °F 35.2 °F 30.19 in Calm     91 % 0.00 in
06:36 37.6 °F 35.2 °F 30.19 in Calm     91 % 0.00 in
06:41 37.6 °F 35.2 °F 30.19 in Calm     91 % 0.00 in
06:46 37.2 °F 34.9 °F 30.20 in Calm     91 % 0.00 in
06:52 36.9 °F 34.5 °F 30.20 in Calm     91 % 0.00 in
06:57 36.7 °F 34.5 °F 30.20 in Calm     92 % 0.00 in
07:02 36.5 °F 34.3 °F 30.19 in Calm     92 % 0.00 in
07:07 36.5 °F 34.3 °F 30.20 in Calm     92 % 0.00 in
07:18 36.9 °F 35.1 °F 30.20 in Calm     93 % 0.00 in
07:23 37.6 °F 36.0 °F 30.20 in Calm     94 % 0.00 in
07:28 38.1 °F 36.3 °F 30.20 in Calm     93 % 0.00 in
07:43 40.6 °F 38.8 °F 30.20 in Calm   1.0 mph 93 % 0.00 in
07:48 41.5 °F 39.4 °F 30.20 in Calm   1.0 mph 92 % 0.00 in
07:58 42.4 °F 38.8 °F 30.21 in North 1.0 mph 2.0 mph 87 % 0.00 in
08:03 43.2 °F 39.0 °F 30.21 in Calm   3.0 mph 85 % 0.00 in
08:08 43.9 °F 39.0 °F 30.21 in North 1.0 mph 3.0 mph 83 % 0.00 in
08:13 44.4 °F 39.6 °F 30.21 in Calm   3.0 mph 83 % 0.00 in
08:28 46.8 °F 40.6 °F 30.21 in ENE 1.0 mph 2.0 mph 79 % 0.00 in
08:33 47.5 °F 41.0 °F 30.21 in Calm   2.0 mph 78 % 0.00 in
08:43 48.9 °F 41.0 °F 30.21 in East 1.0 mph 2.0 mph 74 % 0.00 in
08:53 50.0 °F 41.0 °F 30.21 in Calm   3.0 mph 71 % 0.00 in
08:58 50.4 °F 41.0 °F 30.20 in Calm   5.0 mph 70 % 0.00 in
09:03 50.5 °F 40.8 °F 30.21 in ENE 1.0 mph 5.0 mph 69 % 0.00 in
09:08 50.7 °F 41.4 °F 30.21 in Calm   5.0 mph 70 % 0.00 in
09:15 50.9 °F 41.9 °F 30.21 in Calm   4.0 mph 71 % 0.00 in
09:20 51.3 °F 41.9 °F 30.21 in Calm   4.0 mph 70 % 0.00 in
09:35 52.3 °F 42.8 °F 30.21 in Calm   4.0 mph 70 % 0.00 in
09:36 52.3 °F 42.8 °F 30.21 in ENE 2.0 mph 4.0 mph 70 % 0.00 in
09:41 52.9 °F 42.6 °F 30.21 in ENE 2.0 mph 4.0 mph 68 % 0.00 in
09:51 53.1 °F 42.4 °F 30.21 in ENE 3.0 mph 6.0 mph 67 % 0.00 in
09:56 53.4 °F 42.3 °F 30.21 in NE 1.0 mph 6.0 mph 66 % 0.00 in
10:11 55.2 °F 43.3 °F 30.21 in Calm   3.0 mph 64 % 0.00 in
10:16 55.9 °F 43.5 °F 30.21 in ESE 4.0 mph 4.0 mph 63 % 0.00 in
10:21 55.8 °F 42.1 °F 30.21 in SE 1.0 mph 6.0 mph 60 % 0.00 in
10:26 55.8 °F 42.4 °F 30.20 in North 1.0 mph 6.0 mph 61 % 0.00 in
10:31 55.9 °F 43.2 °F 30.20 in Calm   6.0 mph 62 % 0.00 in
10:46 57.4 °F 43.2 °F 30.19 in ENE 2.0 mph 3.0 mph 59 % 0.00 in
10:48 57.4 °F 42.3 °F 30.19 in Calm   3.0 mph 57 % 0.00 in
10:53 57.6 °F 42.4 °F 30.20 in East 1.0 mph 3.0 mph 57 % 0.00 in
10:58 57.9 °F 42.3 °F 30.19 in Calm   3.0 mph 56 % 0.00 in
11:08 60.1 °F 43.9 °F 30.19 in Calm   3.0 mph 55 % 0.00 in
11:13 60.1 °F 43.0 °F 30.19 in NW 1.0 mph 3.0 mph 53 % 0.00 in
11:18 59.7 °F 43.5 °F 30.19 in Calm   5.0 mph 55 % 0.00 in
11:23 60.1 °F 43.9 °F 30.19 in Calm   5.0 mph 55 % 0.00 in
11:28 60.1 °F 43.3 °F 30.18 in Calm   5.0 mph 54 % 0.00 in
11:38 59.4 °F 41.7 °F 30.18 in Calm   5.0 mph 52 % 0.00 in
11:43 59.5 °F 43.9 °F 30.17 in North 3.0 mph 5.0 mph 56 % 0.00 in
11:49 59.5 °F 41.9 °F 30.17 in NNW 5.0 mph 5.0 mph 52 % 0.00 in
11:54 59.5 °F 41.9 °F 30.17 in NW 2.0 mph 7.0 mph 52 % 0.00 in
12:09 61.3 °F 42.6 °F 30.15 in SSE 1.0 mph 5.0 mph 50 % 0.00 in
12:24 60.8 °F 41.0 °F 30.14 in NNW 5.0 mph 5.0 mph 48 % 0.00 in
12:39 61.5 °F 42.3 °F 30.13 in Calm   8.0 mph 49 % 0.00 in
12:44 62.1 °F 42.6 °F 30.13 in NE 1.0 mph 8.0 mph 49 % 0.00 in
12:49 62.2 °F 41.2 °F 30.12 in NNE 1.0 mph 5.0 mph 46 % 0.00 in
12:54 61.9 °F 39.2 °F 30.12 in NNW 2.0 mph 6.0 mph 43 % 0.00 in
13:04 62.4 °F 40.8 °F 30.11 in Calm   7.0 mph 45 % 0.00 in
13:09 62.2 °F 39.4 °F 30.11 in NW 1.0 mph 7.0 mph 43 % 0.00 in
13:14 62.4 °F 39.0 °F 30.11 in NNW 4.0 mph 8.0 mph 42 % 0.00 in
13:19 62.2 °F 39.4 °F 30.11 in NNW 2.0 mph 8.0 mph 43 % 0.00 in
13:29 62.6 °F 38.5 °F 30.10 in Calm   7.0 mph 41 % 0.00 in
13:34 62.4 °F 39.0 °F 30.10 in NNW 2.0 mph 6.0 mph 42 % 0.00 in
13:44 63.0 °F 37.0 °F 30.09 in WNW 2.0 mph 7.0 mph 38 % 0.00 in
13:49 63.1 °F 39.0 °F 30.09 in WNW 4.0 mph 7.0 mph 41 % 0.00 in
13:54 63.7 °F 38.3 °F 30.09 in North 3.0 mph 7.0 mph 39 % 0.00 in
13:59 64.0 °F 37.9 °F 30.09 in NNE 1.0 mph 7.0 mph 38 % 0.00 in
14:04 64.0 °F 36.5 °F 30.09 in Calm   7.0 mph 36 % 0.00 in
14:09 64.6 °F 39.0 °F 30.09 in East 1.0 mph 7.0 mph 39 % 0.00 in
14:14 64.9 °F 38.1 °F 30.09 in West 1.0 mph 4.0 mph 37 % 0.00 in
14:19 65.1 °F 36.1 °F 30.09 in WNW 4.0 mph 4.0 mph 34 % 0.00 in
14:24 64.9 °F 34.3 °F 30.08 in Calm   6.0 mph 32 % 0.00 in
14:29 65.1 °F 33.8 °F 30.08 in Calm   6.0 mph 31 % 0.00 in
14:39 64.8 °F 35.1 °F 30.08 in NNE 2.0 mph 8.0 mph 33 % 0.00 in
14:44 64.9 °F 34.3 °F 30.08 in WNW 1.0 mph 8.0 mph 32 % 0.00 in
14:49 65.3 °F 35.4 °F 30.08 in NNE 2.0 mph 8.0 mph 33 % 0.00 in
14:54 65.5 °F 36.3 °F 30.08 in NW 2.0 mph 5.0 mph 34 % 0.00 in
15:04 64.8 °F 36.5 °F 30.08 in NNW 4.0 mph 7.0 mph 35 % 0.00 in
15:09 64.8 °F 35.1 °F 30.08 in NW 1.0 mph 7.0 mph 33 % 0.00 in
15:19 64.8 °F 35.8 °F 30.08 in North 2.0 mph 7.0 mph 34 % 0.00 in
15:24 64.6 °F 35.6 °F 30.08 in NW 1.0 mph 8.0 mph 34 % 0.00 in
15:29 64.6 °F 35.6 °F 30.08 in NNW 2.0 mph 8.0 mph 34 % 0.00 in
15:34 64.6 °F 35.6 °F 30.07 in North 2.0 mph 8.0 mph 34 % 0.00 in
15:39 64.6 °F 34.9 °F 30.07 in West 1.0 mph 8.0 mph 33 % 0.00 in
15:44 64.8 °F 34.2 °F 30.08 in NW 2.0 mph 8.0 mph 32 % 0.00 in
15:49 64.6 °F 35.6 °F 30.08 in NNE 4.0 mph 5.0 mph 34 % 0.00 in
15:54 64.4 °F 35.4 °F 30.07 in NNW 3.0 mph 7.0 mph 34 % 0.00 in
16:00 64.0 °F 35.1 °F 30.07 in NW 3.0 mph 7.0 mph 34 % 0.00 in
16:05 63.9 °F 35.6 °F 30.07 in NW 3.0 mph 7.0 mph 35 % 0.00 in
16:10 63.7 °F 34.7 °F 30.07 in NW 2.0 mph 7.0 mph 34 % 0.00 in
16:15 63.7 °F 35.6 °F 30.07 in NW 2.0 mph 7.0 mph 35 % 0.00 in
16:20 63.7 °F 36.1 °F 30.07 in NW 1.0 mph 6.0 mph 36 % 0.00 in
16:35 63.3 °F 36.0 °F 30.07 in NW 2.0 mph 4.0 mph 36 % 0.00 in
16:40 63.0 °F 36.3 °F 30.07 in NNW 1.0 mph 4.0 mph 37 % 0.00 in
16:45 62.8 °F 36.9 °F 30.07 in North 2.0 mph 3.0 mph 38 % 0.00 in
16:50 62.6 °F 37.2 °F 30.07 in NNE 1.0 mph 3.0 mph 39 % 0.00 in
16:55 62.2 °F 37.0 °F 30.07 in NNW 1.0 mph 3.0 mph 39 % 0.00 in
17:00 62.1 °F 38.1 °F 30.07 in Calm   3.0 mph 41 % 0.00 in
17:05 61.5 °F 37.6 °F 30.07 in North 1.0 mph 3.0 mph 41 % 0.00 in
17:10 61.3 °F 38.1 °F 30.07 in NNW 1.0 mph 3.0 mph 42 % 0.00 in
17:15 61.0 °F 37.8 °F 30.07 in North 1.0 mph 3.0 mph 42 % 0.00 in
17:20 60.6 °F 37.9 °F 30.07 in North 1.0 mph 3.0 mph 43 % 0.00 in
17:30 60.1 °F 38.7 °F 30.07 in Calm   1.0 mph 45 % 0.00 in
17:35 59.5 °F 39.4 °F 30.07 in Calm   1.0 mph 47 % 0.00 in
17:40 58.8 °F 39.2 °F 30.07 in Calm   1.0 mph 48 % 0.00 in
17:46 57.9 °F 38.3 °F 30.07 in Calm     48 % 0.00 in
17:51 57.0 °F 38.5 °F 30.07 in Calm     50 % 0.00 in
17:56 56.1 °F 38.3 °F 30.07 in Calm     51 % 0.00 in
18:06 54.5 °F 39.2 °F 30.07 in Calm     56 % 0.00 in
18:16 53.4 °F 38.5 °F 30.07 in Calm     57 % 0.00 in
18:21 53.2 °F 40.1 °F 30.07 in Calm     61 % 0.00 in
18:26 53.1 °F 40.8 °F 30.07 in Calm     63 % 0.00 in
18:31 52.9 °F 40.3 °F 30.08 in Calm     62 % 0.00 in
18:36 52.7 °F 40.5 °F 30.07 in Calm     63 % 0.00 in
18:39 52.5 °F 39.9 °F 30.07 in Calm     62 % 0.00 in
18:42 52.2 °F 39.6 °F 30.07 in Calm     62 % 0.00 in
18:47 51.6 °F 39.0 °F 30.07 in Calm     62 % 0.00 in
18:52 50.9 °F 39.6 °F 30.08 in Calm     65 % 0.00 in
19:02 50.4 °F 40.6 °F 30.08 in Calm     69 % 0.00 in
19:07 50.5 °F 41.2 °F 30.08 in Calm     70 % 0.00 in
19:17 50.5 °F 41.9 °F 30.09 in Calm     72 % 0.00 in
19:19 50.5 °F 41.9 °F 30.09 in Calm     72 % 0.00 in
19:24 50.4 °F 41.4 °F 30.09 in Calm     71 % 0.00 in
19:29 50.0 °F 41.0 °F 30.09 in Calm     71 % 0.00 in
19:34 49.5 °F 40.5 °F 30.08 in Calm     71 % 0.00 in
19:39 48.7 °F 40.5 °F 30.09 in Calm     73 % 0.00 in
19:44 48.6 °F 40.6 °F 30.09 in Calm     74 % 0.00 in
19:49 48.2 °F 39.9 °F 30.08 in Calm     73 % 0.00 in
19:54 48.2 °F 41.4 °F 30.09 in Calm     77 % 0.00 in
20:09 48.4 °F 41.2 °F 30.09 in Calm   3.0 mph 76 % 0.00 in
20:14 48.0 °F 40.8 °F 30.09 in Calm   1.0 mph 76 % 0.00 in
20:19 47.7 °F 40.5 °F 30.09 in Calm     76 % 0.00 in
20:24 47.5 °F 40.6 °F 30.09 in Calm     77 % 0.00 in
20:34 47.7 °F 41.2 °F 30.09 in Calm     78 % 0.00 in
20:44 48.0 °F 41.9 °F 30.09 in Calm     79 % 0.00 in
20:54 48.0 °F 41.9 °F 30.09 in Calm     79 % 0.00 in
20:59 48.0 °F 42.1 °F 30.09 in Calm     80 % 0.00 in
21:04 48.0 °F 42.1 °F 30.09 in Calm     80 % 0.00 in
21:09 47.8 °F 41.9 °F 30.09 in Calm     80 % 0.00 in
21:19 47.5 °F 41.5 °F 30.09 in Calm     80 % 0.00 in
21:21 47.5 °F 41.5 °F 30.09 in Calm     80 % 0.00 in
21:26 47.5 °F 41.9 °F 30.09 in Calm     81 % 0.00 in
21:30 47.5 °F 41.9 °F 30.09 in Calm     81 % 0.00 in
21:35 47.1 °F 41.5 °F 30.09 in Calm     81 % 0.00 in
21:40 46.8 °F 41.2 °F 30.09 in Calm     81 % 0.00 in
21:45 46.6 °F 41.7 °F 30.09 in Calm     83 % 0.00 in
21:55 46.2 °F 41.4 °F 30.09 in Calm     83 % 0.00 in
22:00 46.0 °F 41.5 °F 30.09 in Calm     84 % 0.00 in
22:05 45.9 °F 41.4 °F 30.09 in Calm     84 % 0.00 in
22:15 45.9 °F 41.4 °F 30.09 in Calm     84 % 0.00 in
22:20 45.3 °F 40.8 °F 30.09 in Calm     84 % 0.00 in
22:25 45.1 °F 40.8 °F 30.09 in Calm     85 % 0.00 in
22:30 45.0 °F 41.0 °F 30.09 in Calm     86 % 0.00 in
22:35 45.1 °F 41.5 °F 30.09 in Calm     87 % 0.00 in
22:40 45.3 °F 41.7 °F 30.09 in Calm     87 % 0.00 in
22:45 45.1 °F 41.5 °F 30.09 in Calm     87 % 0.00 in
22:50 45.0 °F 41.4 °F 30.09 in Calm     87 % 0.00 in
22:55 44.8 °F 41.4 °F 30.09 in Calm     88 % 0.00 in
23:00 44.6 °F 41.2 °F 30.09 in Calm     88 % 0.00 in
23:05 44.6 °F 41.5 °F 30.09 in Calm     89 % 0.00 in
23:10 44.4 °F 41.4 °F 30.08 in Calm     89 % 0.00 in
23:15 44.4 °F 41.7 °F 30.08 in Calm     90 % 0.00 in
23:20 44.4 °F 41.7 °F 30.08 in Calm     90 % 0.00 in
23:25 44.1 °F 41.0 °F 30.08 in Calm     89 % 0.00 in
23:30 43.7 °F 40.6 °F 30.07 in Calm     89 % 0.00 in
23:35 43.2 °F 40.1 °F 30.07 in Calm     89 % 0.00 in
23:40 43.0 °F 40.3 °F 30.07 in Calm     90 % 0.00 in
23:45 43.0 °F 40.5 °F 30.07 in Calm     91 % 0.00 in
23:51 43.0 °F 40.5 °F 30.07 in Calm     91 % 0.00 in
23:56 43.0 °F 40.8 °F 30.07 in Calm     92 % 0.00 in
Spring, Texas: Villages of Bridgestone
Compliments of Weather Underground - 2.5 mb

Script developed by  Jim McMurry - jmcmurry@mwt.net Adapted for the template by  Wim van der Kuil - Leuven-Template.eu

You find our weather info also at:

UK Metoffice

WeatherCloud

Weather Underground

Mid-South Weather Network

AWEKAS

Citizen Weather Observer Program (CWOP)

HAMweather, WeatherForYou, PWS Weather

Equipment we use:

Weather-station
Davis Vantage Vue

Weather-program
Meteohub

Weather-server
Debian 7.9 x86 (Guest)

Provider
DreamHost

Davis Vantage Vue

Meteohub

Debian 7.9 x86 (Guest)

DreamHost